^^
Saratoga-Weather Station Historical Data
Daily Summary for April 27, 2020 Units:  English    Metric   Both
Daily Weekly Monthly Yearly Custom
  High: Low: Average:
Temperature: 53.6 °F 45.7 °F 50.2 °F
Dew Point: 48.9 °F 43.3 °F 45.7 °F
Humidity: 93% 70% 85%
Wind Speed: 10.1mph 0mph 2.1mph
Wind Gust: 13mph - -
Wind- - South
Pressure: 29.8 in 29.7 in -
Precipitation: 0.06 in    
Historical Graphs
 
 
Tabular Data for April 27, 2020
Time Temperature Dew Point Pressure Wind Wind Speed Wind Gust Humidity Rainfall Rate (Hourly) solar
00:02 46.9 °F 43.5 °F 29.7 in NNE 2 mph 4 mph 88% 0 in 0 W/m2
00:07 46.9 °F 43.5 °F 29.7 in ESE 2 mph 3 mph 88% 0 in 0 W/m2
00:12 46.8 °F 43.3 °F 29.7 in NNW 4.9 mph 5 mph 88% 0 in 0 W/m2
00:17 46.8 °F 43.3 °F 29.7 in NNW 0.9 mph 2 mph 88% 0 in 0 W/m2
00:22 46.8 °F 43.3 °F 29.7 in WNW 4.9 mph 5 mph 88% 0 in 0 W/m2
00:27 46.8 °F 43.3 °F 29.7 in West 2 mph 4 mph 88% 0 in 0 W/m2
00:32 46.8 °F 43.7 °F 29.7 in NNE 0.9 mph 3 mph 89% 0.01 in 0 W/m2
00:37 46.8 °F 44.1 °F 29.7 in Calm   2 mph 90% 0.01 in 0 W/m2
00:42 46.6 °F 43.9 °F 29.7 in Calm   3 mph 90% 0.01 in 0 W/m2
00:47 46.6 °F 43.9 °F 29.7 in North 0.9 mph 2 mph 90% 0.01 in 0 W/m2
00:52 46.4 °F 43.7 °F 29.7 in North 2 mph 4 mph 90% 0.01 in 0 W/m2
00:57 46 °F 43.3 °F 29.7 in East 2 mph 3 mph 90% 0.01 in 0 W/m2
01:02 45.9 °F 43.3 °F 29.7 in SE 0.9 mph 4 mph 91% 0.01 in 0 W/m2
01:12 45.7 °F 43.5 °F 29.7 in Calm   1 mph 92% 0.01 in 0 W/m2
01:17 45.7 °F 43.5 °F 29.7 in Calm   2 mph 92% 0.01 in 0 W/m2
01:22 45.7 °F 43.5 °F 29.7 in Calm     92% 0.01 in 0 W/m2
01:27 45.7 °F 43.5 °F 29.7 in Calm   1 mph 92% 0.01 in 0 W/m2
01:32 45.7 °F 43.5 °F 29.7 in NE 0.9 mph 2 mph 92% 0 in 0 W/m2
01:37 45.7 °F 43.7 °F 29.7 in West 0.9 mph 3 mph 93% 0 in 0 W/m2
01:42 45.9 °F 43.9 °F 29.7 in East 0.9 mph 2 mph 93% 0 in 0 W/m2
01:47 46 °F 44.1 °F 29.7 in Calm   3 mph 93% 0 in 0 W/m2
01:52 46.2 °F 44.1 °F 29.7 in NW 0.9 mph 2 mph 92% 0 in 0 W/m2
01:57 46.4 °F 44.2 °F 29.7 in East 0.9 mph 3 mph 92% 0 in 0 W/m2
02:02 46.6 °F 44.4 °F 29.7 in Calm   1 mph 92% 0 in 0 W/m2
02:08 46.6 °F 44.4 °F 29.7 in ESE 0.9 mph 1 mph 92% 0 in 0 W/m2
02:13 46.8 °F 44.6 °F 29.7 in NE 0.9 mph 1 mph 92% 0 in 0 W/m2
02:18 46.8 °F 44.6 °F 29.7 in Calm   3 mph 92% 0 in 0 W/m2
02:23 46.8 °F 44.6 °F 29.7 in WNW 2 mph 4 mph 92% 0 in 0 W/m2
02:28 46.9 °F 44.8 °F 29.7 in NNE 0.9 mph 3 mph 92% 0 in 0 W/m2
02:33 46.9 °F 44.8 °F 29.7 in NNE 2 mph 4 mph 92% 0 in 0 W/m2
02:38 46.9 °F 44.4 °F 29.7 in North 2 mph 3 mph 91% 0 in 0 W/m2
02:43 47.1 °F 44.6 °F 29.7 in NW 4 mph 8 mph 91% 0 in 0 W/m2
02:48 47.1 °F 44.6 °F 29.7 in NNW 0.9 mph 3 mph 91% 0 in 0 W/m2
02:53 47.1 °F 44.6 °F 29.7 in NW 0.9 mph 3 mph 91% 0 in 0 W/m2
02:58 47.3 °F 44.8 °F 29.7 in NW 2 mph 2 mph 91% 0 in 0 W/m2
03:03 47.3 °F 44.8 °F 29.7 in North 2 mph 4 mph 91% 0 in 0 W/m2
03:08 47.5 °F 45 °F 29.7 in WSW 0.9 mph 3 mph 91% 0 in 0 W/m2
03:13 47.5 °F 45 °F 29.7 in Calm   4 mph 91% 0 in 0 W/m2
03:18 47.5 °F 45 °F 29.7 in West 0.9 mph 3 mph 91% 0 in 0 W/m2
03:23 47.5 °F 45 °F 29.7 in Calm   2 mph 91% 0 in 0 W/m2
03:28 47.5 °F 45 °F 29.7 in ENE 0.9 mph 3 mph 91% 0 in 0 W/m2
03:33 47.5 °F 45 °F 29.7 in North 0.9 mph 2 mph 91% 0 in 0 W/m2
03:38 47.5 °F 45 °F 29.7 in NW 0.9 mph 4 mph 91% 0 in 0 W/m2
03:43 47.7 °F 45.1 °F 29.7 in NNW 2.9 mph 3 mph 91% 0 in 0 W/m2
03:48 47.7 °F 45.1 °F 29.7 in ENE 0.9 mph 4 mph 91% 0 in 0 W/m2
03:53 47.7 °F 45.1 °F 29.7 in NNE 0.9 mph 2 mph 91% 0 in 0 W/m2
03:58 47.7 °F 45.1 °F 29.7 in NNW 2 mph 3 mph 91% 0 in 0 W/m2
04:03 47.7 °F 45.1 °F 29.7 in WNW 2 mph 7 mph 91% 0 in 0 W/m2
04:08 47.7 °F 45 °F 29.7 in West 0.9 mph 3 mph 90% 0 in 0 W/m2
04:13 47.8 °F 45.3 °F 29.7 in WNW 0.9 mph 2 mph 91% 0 in 0 W/m2
04:18 47.8 °F 45 °F 29.7 in NW 2 mph 3 mph 90% 0 in 0 W/m2
04:23 47.8 °F 45 °F 29.7 in NNW 0.9 mph 2 mph 90% 0 in 0 W/m2
04:28 47.8 °F 45 °F 29.7 in East 0.9 mph 3 mph 90% 0 in 0 W/m2
04:33 47.8 °F 45 °F 29.7 in Calm   1 mph 90% 0 in 0 W/m2
04:38 47.8 °F 45 °F 29.7 in North 2 mph 4 mph 90% 0 in 0 W/m2
04:43 48 °F 45.1 °F 29.7 in NW 0.9 mph 8 mph 90% 0 in 0 W/m2
04:48 48 °F 45.1 °F 29.7 in WNW 2 mph 2 mph 90% 0 in 0 W/m2
04:53 48 °F 45.5 °F 29.7 in NW 0.9 mph 3 mph 91% 0 in 0 W/m2
04:58 48 °F 45.1 °F 29.7 in Calm   1 mph 90% 0 in 0 W/m2
05:03 47.8 °F 45.3 °F 29.7 in NNE 2 mph 3 mph 91% 0 in 0 W/m2
05:08 47.8 °F 45.3 °F 29.7 in NW 0.9 mph 4 mph 91% 0 in 0 W/m2
05:13 47.8 °F 45.3 °F 29.7 in Calm   2 mph 91% 0 in 0 W/m2
05:19 47.8 °F 45.3 °F 29.7 in Calm   3 mph 91% 0 in 0 W/m2
05:24 47.8 °F 45.3 °F 29.7 in North 0.9 mph 3 mph 91% 0 in 0 W/m2
05:29 47.8 °F 45.3 °F 29.7 in NE 2 mph 2 mph 91% 0 in 0 W/m2
05:34 47.8 °F 45.3 °F 29.7 in NNW 2.9 mph 3 mph 91% 0 in 0 W/m2
05:39 47.8 °F 45.3 °F 29.7 in Calm   1 mph 91% 0 in 0 W/m2
05:44 47.8 °F 45.3 °F 29.7 in NE 2 mph 3 mph 91% 0 in 0 W/m2
05:49 47.8 °F 45.3 °F 29.7 in Calm   2 mph 91% 0 in 0 W/m2
05:54 47.8 °F 45.7 °F 29.7 in NW 2 mph 6 mph 92% 0 in 0 W/m2
05:59 47.8 °F 45.7 °F 29.7 in East 2.9 mph 3 mph 92% 0 in 0 W/m2
06:04 47.8 °F 45.3 °F 29.8 in NNW 2.9 mph 5 mph 91% 0 in 0 W/m2
06:09 48 °F 45.5 °F 29.8 in NW 2.9 mph 5 mph 91% 0 in 0 W/m2
06:14 48 °F 45.5 °F 29.8 in Calm   2 mph 91% 0 in 0 W/m2
06:19 48 °F 45.5 °F 29.8 in NW 0.9 mph 2 mph 91% 0 in 0 W/m2
06:24 48 °F 45.5 °F 29.7 in North 2 mph 2 mph 91% 0 in 0 W/m2
06:29 48 °F 45.5 °F 29.8 in NNE 0.9 mph 2 mph 91% 0 in 0 W/m2
06:34 48 °F 45.5 °F 29.8 in North 0.9 mph 2 mph 91% 0 in 0 W/m2
06:39 48 °F 45.5 °F 29.8 in NW 2.9 mph 3 mph 91% 0 in 0 W/m2
06:44 48 °F 45.5 °F 29.8 in Calm   3 mph 91% 0 in 0 W/m2
06:49 48 °F 45.5 °F 29.8 in Calm   3 mph 91% 0 in 0 W/m2
06:54 48 °F 45.9 °F 29.8 in North 0.9 mph 2 mph 92% 0 in 0 W/m2
06:59 48 °F 45.9 °F 29.8 in NNE 0.9 mph 2 mph 92% 0 in 0 W/m2
07:04 48 °F 45.9 °F 29.8 in NW 0.9 mph 4 mph 92% 0 in 0 W/m2
07:09 48 °F 45.9 °F 29.8 in ENE 2 mph 3 mph 92% 0 in 0 W/m2
07:14 48 °F 45.9 °F 29.8 in SSW 2 mph 2 mph 92% 0 in 0 W/m2
07:19 48 °F 45.9 °F 29.8 in NNE 0.9 mph 2 mph 92% 0 in 0 W/m2
07:24 48 °F 45.9 °F 29.8 in Calm   2 mph 92% 0 in 0 W/m2
07:29 47.8 °F 45.7 °F 29.8 in Calm   2 mph 92% 0.01 in 0 W/m2
07:34 47.8 °F 45.9 °F 29.8 in NW 2.9 mph 3 mph 93% 0.01 in 0 W/m2
07:39 47.8 °F 45.9 °F 29.8 in West 2 mph 7 mph 93% 0.01 in 0 W/m2
07:44 47.8 °F 45.9 °F 29.8 in WNW 2.9 mph 3 mph 93% 0.02 in 0 W/m2
07:49 47.8 °F 45.9 °F 29.8 in NNW 0.9 mph 4 mph 93% 0.02 in 7 W/m2
07:54 47.8 °F 45.9 °F 29.8 in NNE 0.9 mph 3 mph 93% 0.02 in 7 W/m2
07:59 47.8 °F 45.9 °F 29.8 in NE 2 mph 2 mph 93% 0.02 in 9 W/m2
08:04 47.8 °F 45.9 °F 29.8 in NNE 4 mph 4 mph 93% 0.02 in 11 W/m2
08:09 47.8 °F 45.9 °F 29.8 in NW 2.9 mph 3 mph 93% 0.02 in 9 W/m2
08:14 47.8 °F 45.9 °F 29.8 in WNW 2.9 mph 6 mph 93% 0.02 in 14 W/m2
08:19 48 °F 46 °F 29.8 in Calm   4 mph 93% 0.02 in 14 W/m2
08:24 48 °F 46 °F 29.8 in Calm   4 mph 93% 0.02 in 9 W/m2
08:29 48 °F 46 °F 29.8 in Calm   2 mph 93% 0.02 in 16 W/m2
08:34 48 °F 46 °F 29.8 in NNW 2.9 mph 6 mph 93% 0.02 in 42 W/m2
08:39 48 °F 46 °F 29.8 in Calm   3 mph 93% 0.02 in 35 W/m2
08:44 48 °F 46 °F 29.8 in Calm   2 mph 93% 0.01 in 32 W/m2
08:49 48 °F 46 °F 29.8 in WNW 2.9 mph 6 mph 93% 0.01 in 40 W/m2
08:54 48.2 °F 46.2 °F 29.8 in NW 2.9 mph 3 mph 93% 0.01 in 47 W/m2
08:59 48.2 °F 46.2 °F 29.8 in Calm   3 mph 93% 0.01 in 90 W/m2
09:04 48.4 °F 46.4 °F 29.8 in NNW 2.9 mph 4 mph 93% 0.01 in 90 W/m2
09:09 48.6 °F 46.4 °F 29.8 in WNW 4.9 mph 6 mph 92% 0.01 in 40 W/m2
09:14 48.6 °F 46.4 °F 29.8 in WSW 2.9 mph 4 mph 92% 0.01 in 47 W/m2
09:19 48.6 °F 46.4 °F 29.8 in East 0.9 mph 5 mph 92% 0.01 in 54 W/m2
09:24 48.6 °F 46.4 °F 29.8 in WSW 0.9 mph 3 mph 92% 0 in 86 W/m2
09:29 48.6 °F 46.4 °F 29.8 in NE 0.9 mph 3 mph 92% 0 in 169 W/m2
09:34 48.7 °F 46.6 °F 29.8 in Calm   5 mph 92% 0 in 190 W/m2
09:39 48.9 °F 46.4 °F 29.8 in NNW 6 mph 8 mph 91% 0 in 98 W/m2
09:44 48.9 °F 46.4 °F 29.8 in North 2.9 mph 6 mph 91% 0 in 97 W/m2
09:49 49.1 °F 46.6 °F 29.8 in South 2 mph 7 mph 91% 0 in 223 W/m2
09:54 49.5 °F 46.6 °F 29.8 in WNW 0.9 mph 3 mph 90% 0 in 163 W/m2
09:59 49.6 °F 46.6 °F 29.8 in NW 0.9 mph 8 mph 89% 0 in 139 W/m2
10:04 49.6 °F 46.2 °F 29.8 in WNW 4 mph 8 mph 88% 0 in 158 W/m2
10:09 49.6 °F 46.6 °F 29.8 in South 2.9 mph 5 mph 89% 0 in 142 W/m2
10:14 49.8 °F 46.4 °F 29.8 in NW 2.9 mph 5 mph 88% 0 in 162 W/m2
10:19 50 °F 46.6 °F 29.8 in WNW 0.9 mph 4 mph 88% 0 in 137 W/m2
10:24 50.2 °F 46.4 °F 29.8 in SW 2 mph 3 mph 87% 0 in 176 W/m2
10:29 50.2 °F 46.4 °F 29.8 in West 10.1 mph 10 mph 87% 0 in 206 W/m2
10:35 50.2 °F 46.4 °F 29.8 in Calm   5 mph 87% 0 in 149 W/m2
10:40 50.4 °F 46.6 °F 29.8 in NW 2.9 mph 4 mph 87% 0 in 109 W/m2
10:45 50.4 °F 46.4 °F 29.8 in NNE 2 mph 3 mph 86% 0 in 172 W/m2
10:50 50.5 °F 46.6 °F 29.8 in NW 2.9 mph 5 mph 86% 0 in 272 W/m2
10:55 50.5 °F 46.2 °F 29.8 in WSW 4.9 mph 9 mph 85% 0 in 178 W/m2
11:00 50.7 °F 45.7 °F 29.8 in Calm   5 mph 83% 0 in 102 W/m2
11:05 50.7 °F 45.5 °F 29.8 in North 2.9 mph 4 mph 82% 0 in 134 W/m2
11:10 50.7 °F 45.5 °F 29.8 in NNW 4 mph 7 mph 82% 0 in 186 W/m2
11:15 50.7 °F 45.1 °F 29.8 in WNW 4.9 mph 6 mph 81% 0 in 181 W/m2
11:20 50.9 °F 45.3 °F 29.8 in NNW 2.9 mph 4 mph 81% 0 in 139 W/m2
11:25 50.9 °F 45 °F 29.8 in West 6 mph 8 mph 80% 0 in 113 W/m2
11:30 50.9 °F 45.3 °F 29.8 in NW 4 mph 7 mph 81% 0 in 135 W/m2
11:35 50.7 °F 45.1 °F 29.8 in NW 6 mph 8 mph 81% 0 in 165 W/m2
11:40 50.9 °F 45.3 °F 29.8 in NNE 0.9 mph 3 mph 81% 0 in 223 W/m2
11:45 51.1 °F 45.1 °F 29.8 in NW 2.9 mph 9 mph 80% 0 in 172 W/m2
11:50 51.1 °F 45.1 °F 29.8 in NNW 2.9 mph 8 mph 80% 0 in 169 W/m2
11:55 51.3 °F 45.7 °F 29.8 in NW 2 mph 4 mph 81% 0 in 158 W/m2
12:00 51.4 °F 45.5 °F 29.8 in ESE 2.9 mph 8 mph 80% 0 in 169 W/m2
12:05 51.4 °F 45.1 °F 29.8 in WNW 2.9 mph 6 mph 79% 0 in 183 W/m2
12:10 51.4 °F 44.8 °F 29.8 in North 0.9 mph 3 mph 78% 0 in 139 W/m2
12:15 51.4 °F 45.1 °F 29.8 in WNW 0.9 mph 7 mph 79% 0 in 77 W/m2
12:20 51.4 °F 45.1 °F 29.8 in WNW 4 mph 8 mph 79% 0 in 121 W/m2
12:25 51.4 °F 45.1 °F 29.8 in NE 2 mph 4 mph 79% 0 in 199 W/m2
12:30 51.6 °F 45.7 °F 29.8 in Calm   7 mph 80% 0 in 290 W/m2
12:35 52 °F 45.7 °F 29.8 in WNW 2.9 mph 6 mph 79% 0 in 190 W/m2
12:40 52.2 °F 45.9 °F 29.8 in West 2.9 mph 5 mph 79% 0 in 167 W/m2
12:45 52.2 °F 45.5 °F 29.8 in West 2.9 mph 11 mph 78% 0 in 185 W/m2
12:50 52.2 °F 45.5 °F 29.8 in WNW 4 mph 7 mph 78% 0 in 237 W/m2
12:55 52.2 °F 45.5 °F 29.8 in NE 2.9 mph 11 mph 78% 0 in 148 W/m2
13:00 52.3 °F 45.3 °F 29.8 in WNW 2.9 mph 8 mph 77% 0 in 172 W/m2
13:05 52.3 °F 45.3 °F 29.8 in NW 6.9 mph 9 mph 77% 0 in 237 W/m2
13:10 52.5 °F 45.1 °F 29.8 in NNW 2 mph 4 mph 76% 0 in 207 W/m2
13:15 52.9 °F 45.1 °F 29.8 in West 0.9 mph 6 mph 75% 0 in 193 W/m2
13:20 52.9 °F 45.1 °F 29.8 in NNW 4.9 mph 6 mph 75% 0 in 127 W/m2
13:25 53.1 °F 45 °F 29.8 in West 2.9 mph 9 mph 74% 0 in 207 W/m2
13:30 53.1 °F 45 °F 29.8 in NNW 2.9 mph 3 mph 74% 0 in 195 W/m2
13:35 53.2 °F 45.5 °F 29.8 in WNW 2.9 mph 3 mph 75% 0 in 197 W/m2
13:40 53.2 °F 44.8 °F 29.8 in South 0.9 mph 3 mph 73% 0 in 269 W/m2
13:45 53.4 °F 45.3 °F 29.8 in East 2 mph 5 mph 74% 0 in 190 W/m2
13:50 53.4 °F 45 °F 29.8 in NNW 6 mph 8 mph 73% 0 in 97 W/m2
13:55 53.4 °F 45 °F 29.8 in West 8.1 mph 13 mph 73% 0 in 121 W/m2
14:00 53.2 °F 44.8 °F 29.8 in Calm   5 mph 73% 0 in 121 W/m2
14:05 53.1 °F 45 °F 29.8 in West 2.9 mph 13 mph 74% 0 in 86 W/m2
14:10 52.9 °F 44.4 °F 29.8 in Calm   6 mph 73% 0 in 74 W/m2
14:15 52.9 °F 44.8 °F 29.8 in East 4 mph 5 mph 74% 0 in 91 W/m2
14:20 52.9 °F 45.1 °F 29.8 in NE 2 mph 3 mph 75% 0 in 116 W/m2
14:25 53.1 °F 45.3 °F 29.8 in NNW 0.9 mph 3 mph 75% 0 in 221 W/m2
14:30 53.2 °F 45.1 °F 29.8 in North 4 mph 8 mph 74% 0 in 220 W/m2
14:35 53.2 °F 44.4 °F 29.8 in WNW 0.9 mph 7 mph 72% 0 in 178 W/m2
14:40 53.4 °F 44.2 °F 29.8 in ESE 0.9 mph 4 mph 71% 0 in 132 W/m2
14:45 53.6 °F 44.4 °F 29.8 in Calm   1 mph 71% 0 in 97 W/m2
14:50 53.6 °F 44.1 °F 29.8 in West 2 mph 4 mph 70% 0 in 125 W/m2
14:55 53.4 °F 44.2 °F 29.8 in West 4 mph 4 mph 71% 0 in 84 W/m2
15:00 53.4 °F 44.6 °F 29.8 in NE 2.9 mph 4 mph 72% 0 in 105 W/m2
15:05 53.4 °F 44.6 °F 29.8 in ESE 2.9 mph 8 mph 72% 0 in 125 W/m2
15:10 53.4 °F 45 °F 29.8 in NNW 2 mph 4 mph 73% 0 in 118 W/m2
15:15 53.2 °F 44.8 °F 29.8 in ENE 2 mph 3 mph 73% 0 in 114 W/m2
15:20 53.2 °F 44.8 °F 29.8 in WNW 2.9 mph 3 mph 73% 0 in 114 W/m2
15:25 53.2 °F 44.8 °F 29.8 in NW 4 mph 6 mph 73% 0 in 120 W/m2
15:30 53.2 °F 44.8 °F 29.8 in ENE 4 mph 4 mph 73% 0 in 141 W/m2
15:35 53.4 °F 45.3 °F 29.8 in NW 2.9 mph 6 mph 74% 0 in 163 W/m2
15:40 53.6 °F 45.1 °F 29.8 in NW 0.9 mph 4 mph 73% 0 in 104 W/m2
15:45 53.6 °F 44.8 °F 29.8 in North 4 mph 5 mph 72% 0 in 114 W/m2
15:50 53.6 °F 44.8 °F 29.8 in NE 2.9 mph 6 mph 72% 0 in 111 W/m2
15:55 53.6 °F 45.1 °F 29.8 in North 2 mph 3 mph 73% 0 in 90 W/m2
16:00 53.6 °F 45.1 °F 29.8 in North 2.9 mph 4 mph 73% 0 in 72 W/m2
16:05 53.4 °F 44.6 °F 29.8 in NW 2 mph 5 mph 72% 0 in 72 W/m2
16:10 53.4 °F 45 °F 29.8 in ENE 4 mph 5 mph 73% 0 in 62 W/m2
16:15 53.2 °F 44.8 °F 29.8 in North 2.9 mph 4 mph 73% 0 in 37 W/m2
16:20 53.2 °F 44.8 °F 29.8 in NNE 2 mph 3 mph 73% 0 in 28 W/m2
16:25 53.1 °F 45 °F 29.8 in NE 2 mph 4 mph 74% 0 in 33 W/m2
16:30 53.1 °F 45 °F 29.8 in NE 0.9 mph 2 mph 74% 0 in 28 W/m2
16:35 53.1 °F 45 °F 29.8 in North 0.9 mph 4 mph 74% 0 in 14 W/m2
16:40 53.1 °F 45 °F 29.8 in ENE 2 mph 4 mph 74% 0 in 12 W/m2
16:45 52.9 °F 45.1 °F 29.8 in NE 2.9 mph 5 mph 75% 0 in 11 W/m2
16:50 52.9 °F 45.1 °F 29.8 in NNE 2.9 mph 5 mph 75% 0 in 11 W/m2
16:55 52.9 °F 45.1 °F 29.8 in ENE 2 mph 3 mph 75% 0 in 7 W/m2
17:00 52.7 °F 45 °F 29.8 in ENE 2.9 mph 3 mph 75% 0 in 5 W/m2
17:05 52.7 °F 45 °F 29.8 in ESE 4 mph 6 mph 75% 0 in 5 W/m2
17:10 52.5 °F 44.8 °F 29.8 in NE 0.9 mph 3 mph 75% 0 in 5 W/m2
17:15 52.5 °F 44.8 °F 29.8 in Calm   5 mph 75% 0 in 0 W/m2
17:20 52.5 °F 44.8 °F 29.8 in ENE 0.9 mph 3 mph 75% 0 in 0 W/m2
17:25 52.5 °F 44.8 °F 29.8 in NE 2.9 mph 4 mph 75% 0 in 0 W/m2
17:30 52.5 °F 44.8 °F 29.8 in ENE 4 mph 4 mph 75% 0 in 0 W/m2
17:35 52.3 °F 45 °F 29.8 in ESE 0.9 mph 4 mph 76% 0 in 0 W/m2
17:40 52.3 °F 45 °F 29.8 in ENE 0.9 mph 4 mph 76% 0 in 0 W/m2
17:45 52.3 °F 45.3 °F 29.8 in ENE 2 mph 4 mph 77% 0 in 0 W/m2
17:50 52.2 °F 45.1 °F 29.8 in NE 2 mph 4 mph 77% 0 in 0 W/m2
17:55 52.2 °F 45.5 °F 29.8 in East 2.9 mph 4 mph 78% 0 in 0 W/m2
18:00 52.2 °F 45.5 °F 29.8 in NNE 2.9 mph 3 mph 78% 0 in 0 W/m2
18:05 52.2 °F 45.5 °F 29.8 in East 2.9 mph 6 mph 78% 0 in 0 W/m2
18:10 52.2 °F 45.9 °F 29.8 in NE 4 mph 5 mph 79% 0 in 0 W/m2
18:15 52.2 °F 45.9 °F 29.8 in NNW 2.9 mph 4 mph 79% 0 in 0 W/m2
18:20 52.2 °F 45.9 °F 29.8 in NNE 2 mph 3 mph 79% 0 in 0 W/m2
18:25 52.2 °F 45.9 °F 29.8 in East 2 mph 6 mph 79% 0 in 0 W/m2
18:30 52.2 °F 45.9 °F 29.8 in NE 2.9 mph 5 mph 79% 0 in 0 W/m2
18:35 52.2 °F 46.2 °F 29.8 in NNW 2 mph 4 mph 80% 0 in 0 W/m2
18:40 52.2 °F 46.2 °F 29.8 in NE 2 mph 5 mph 80% 0 in 0 W/m2
18:45 52 °F 46.4 °F 29.8 in NNE 0.9 mph 4 mph 81% 0 in 0 W/m2
18:50 51.8 °F 46.2 °F 29.8 in ENE 4 mph 5 mph 81% 0 in 0 W/m2
18:55 51.8 °F 46.2 °F 29.8 in NNW 0.9 mph 1 mph 81% 0 in 0 W/m2
19:00 51.6 °F 46 °F 29.8 in NE 0.9 mph 5 mph 81% 0 in 0 W/m2
19:05 51.6 °F 46 °F 29.8 in ENE 2 mph 6 mph 81% 0 in 0 W/m2
19:10 51.6 °F 46 °F 29.8 in NNE 0.9 mph 3 mph 81% 0 in 0 W/m2
19:15 51.6 °F 46.2 °F 29.8 in Calm   1 mph 82% 0 in 0 W/m2
19:20 51.6 °F 46 °F 29.8 in NNE 2.9 mph 4 mph 81% 0 in 0 W/m2
19:25 51.8 °F 46.2 °F 29.7 in NNE 0.9 mph 3 mph 81% 0 in 0 W/m2
19:30 51.8 °F 46.4 °F 29.7 in ESE 0.9 mph 5 mph 82% 0 in 0 W/m2
19:35 51.6 °F 46.2 °F 29.7 in ENE 2.9 mph 4 mph 82% 0 in 0 W/m2
19:40 51.6 °F 46.2 °F 29.7 in NE 4 mph 5 mph 82% 0 in 0 W/m2
19:45 51.6 °F 46.2 °F 29.7 in NE 2.9 mph 7 mph 82% 0 in 0 W/m2
19:50 51.6 °F 46.2 °F 29.7 in North 0.9 mph 4 mph 82% 0 in 0 W/m2
19:55 51.6 °F 46.6 °F 29.7 in North 2.9 mph 4 mph 83% 0 in 0 W/m2
20:00 51.6 °F 46.6 °F 29.7 in NE 2 mph 4 mph 83% 0 in 0 W/m2
20:05 51.6 °F 46.6 °F 29.7 in ENE 2 mph 4 mph 83% 0 in 0 W/m2
20:10 51.6 °F 46.6 °F 29.7 in NE 2.9 mph 7 mph 83% 0 in 0 W/m2
20:15 51.6 °F 46.6 °F 29.7 in NE 4.9 mph 7 mph 83% 0 in 0 W/m2
20:20 51.8 °F 46.4 °F 29.7 in NE 4.9 mph 7 mph 82% 0 in 0 W/m2
20:25 52 °F 46.6 °F 29.7 in NE 2 mph 6 mph 82% 0 in 0 W/m2
20:30 52 °F 46.6 °F 29.7 in West 2.9 mph 5 mph 82% 0 in 0 W/m2
20:35 51.8 °F 46.8 °F 29.7 in NE 2 mph 5 mph 83% 0 in 0 W/m2
20:40 51.4 °F 47.1 °F 29.7 in NNE 2 mph 4 mph 85% 0 in 0 W/m2
20:45 51.3 °F 46.9 °F 29.7 in NE 2 mph 9 mph 85% 0 in 0 W/m2
20:50 51.1 °F 47.1 °F 29.7 in NNW 0.9 mph 6 mph 86% 0 in 0 W/m2
20:55 51.1 °F 47.3 °F 29.7 in ENE 2 mph 2 mph 87% 0 in 0 W/m2
21:00 51.1 °F 47.3 °F 29.7 in North 2 mph 4 mph 87% 0 in 0 W/m2
21:05 51.1 °F 47.3 °F 29.7 in Calm   4 mph 87% 0 in 0 W/m2
21:10 51.3 °F 47.3 °F 29.7 in East 0.9 mph 7 mph 86% 0 in 0 W/m2
21:15 51.4 °F 47.5 °F 29.7 in NNW 4 mph 4 mph 86% 0 in 0 W/m2
21:20 51.4 °F 47.1 °F 29.7 in NNE 0.9 mph 8 mph 85% 0 in 0 W/m2
21:25 51.6 °F 47.3 °F 29.7 in West 4 mph 7 mph 85% 0 in 0 W/m2
21:30 52 °F 47.7 °F 29.7 in Calm   4 mph 85% 0 in 0 W/m2
21:35 52 °F 47.7 °F 29.7 in NNE 2 mph 4 mph 85% 0 in 0 W/m2
21:40 52 °F 47.7 °F 29.7 in NW 2.9 mph 8 mph 85% 0 in 0 W/m2
21:45 52 °F 47.7 °F 29.7 in NNE 2 mph 4 mph 85% 0 in 0 W/m2
21:50 52.2 °F 47.8 °F 29.7 in NW 2.9 mph 10 mph 85% 0 in 0 W/m2
21:55 52.2 °F 47.8 °F 29.7 in NNW 2 mph 8 mph 85% 0 in 0 W/m2
22:00 52.2 °F 47.8 °F 29.7 in North 2.9 mph 9 mph 85% 0 in 0 W/m2
22:05 52.2 °F 47.8 °F 29.7 in North 2 mph 6 mph 85% 0 in 0 W/m2
22:10 52.2 °F 47.8 °F 29.7 in NNW 0.9 mph 9 mph 85% 0 in 0 W/m2
22:15 52.2 °F 48 °F 29.7 in East 4 mph 4 mph 86% 0 in 0 W/m2
22:20 52.2 °F 48 °F 29.7 in ENE 6 mph 6 mph 86% 0 in 0 W/m2
22:25 52 °F 48.2 °F 29.7 in ENE 6.9 mph 10 mph 87% 0 in 0 W/m2
22:30 51.6 °F 48.2 °F 29.7 in NE 0.9 mph 6 mph 88% 0 in 0 W/m2
22:35 51.6 °F 48.6 °F 29.7 in NNE 2.9 mph 7 mph 89% 0 in 0 W/m2
22:40 51.4 °F 48.4 °F 29.7 in North 2.9 mph 4 mph 89% 0 in 0 W/m2
22:45 51.4 °F 48.4 °F 29.7 in WNW 4 mph 4 mph 89% 0 in 0 W/m2
22:50 51.4 °F 48.6 °F 29.7 in NNE 2.9 mph 8 mph 90% 0.01 in 0 W/m2
22:55 51.3 °F 48.4 °F 29.7 in NE 2.9 mph 6 mph 90% 0.01 in 0 W/m2
23:00 51.3 °F 48.4 °F 29.7 in NNW 2 mph 8 mph 90% 0.01 in 0 W/m2
23:05 51.3 °F 48.7 °F 29.7 in NW 2 mph 2 mph 91% 0.01 in 0 W/m2
23:10 51.3 °F 48.7 °F 29.7 in SE 6.9 mph 7 mph 91% 0.01 in 0 W/m2
23:15 51.3 °F 48.7 °F 29.7 in NNW 2.9 mph 5 mph 91% 0.01 in 0 W/m2
23:20 51.1 °F 48.6 °F 29.7 in WNW 2 mph 8 mph 91% 0.01 in 0 W/m2
23:25 51.1 °F 48.9 °F 29.7 in NW 6 mph 8 mph 92% 0.01 in 0 W/m2
23:30 51.1 °F 48.9 °F 29.7 in NW 2.9 mph 8 mph 92% 0.01 in 0 W/m2
23:35 51.1 °F 48.9 °F 29.7 in NE 4 mph 6 mph 92% 0.02 in 0 W/m2
23:40 50.9 °F 48.9 °F 29.7 in Calm   8 mph 93% 0.02 in 0 W/m2
23:45 50.9 °F 48.9 °F 29.7 in NNE 4.9 mph 5 mph 93% 0.02 in 0 W/m2
23:50 50.9 °F 48.9 °F 29.7 in NNE 0.9 mph 5 mph 93% 0.02 in 0 W/m2
23:55 50.9 °F 48.9 °F 29.7 in NNE 2 mph 4 mph 93% 0.02 in 0 W/m2
Juneau County Weather
Compliments of Weather Underground - 4 mb